createdAt,value
2022-09-26T00:00:49.673Z,100214.88
2022-09-26T00:03:16.314Z,100212.81
2022-09-26T00:05:42.638Z,100205.41
2022-09-26T00:08:08.990Z,100206.06
2022-09-26T00:10:35.452Z,100200.47
2022-09-26T00:13:01.800Z,100186.84
2022-09-26T00:15:28.220Z,100192.06
2022-09-26T00:17:54.571Z,100180.41
2022-09-26T00:20:20.924Z,100173.19
2022-09-26T00:22:47.247Z,100171.50
2022-09-26T00:25:14.034Z,100169.84
2022-09-26T00:27:40.402Z,100170.69
2022-09-26T00:30:07.645Z,100153.69
2022-09-26T00:32:33.980Z,100159.25
2022-09-26T00:35:00.321Z,100157.59
2022-09-26T00:37:26.671Z,100156.94
2022-09-26T00:39:53.000Z,100149.06
2022-09-26T00:42:22.450Z,100148.22
2022-09-26T00:44:54.754Z,100147.59
2022-09-26T00:47:39.206Z,100142.38
2022-09-26T00:50:26.259Z,100141.53
2022-09-26T00:52:58.446Z,100142.75
2022-09-26T00:55:35.007Z,100135.69
2022-09-26T00:58:09.974Z,100134.84
2022-09-26T01:00:37.661Z,100129.84
2022-09-26T01:03:04.127Z,100120.09
2022-09-26T01:05:31.734Z,100120.09
2022-09-26T01:07:59.128Z,100114.72
2022-09-26T01:10:26.893Z,100107.47
2022-09-26T01:12:55.762Z,100108.47
2022-09-26T01:15:22.221Z,100099.56
2022-09-26T01:17:49.618Z,100096.88
2022-09-26T01:20:42.076Z,100086.78
2022-09-26T01:23:17.865Z,100082.44
2022-09-26T01:26:19.372Z,100082.06
2022-09-26T01:29:23.203Z,100074.81
2022-09-26T01:32:22.305Z,100070.06
2022-09-26T01:35:17.591Z,100072.78
2022-09-26T01:38:10.066Z,100069.25
2022-09-26T01:41:03.531Z,100068.22
2022-09-26T01:43:50.409Z,100068.22
2022-09-26T01:46:31.234Z,100059.31
2022-09-26T01:49:02.369Z,100054.75
2022-09-26T01:51:48.906Z,100050.41
2022-09-26T01:54:24.642Z,100048.34
2022-09-26T01:56:53.331Z,100045.03
2022-09-26T01:59:26.059Z,100035.09
2022-09-26T02:01:59.390Z,100035.09
2022-09-26T02:04:32.387Z,100031.56
2022-09-26T02:07:05.554Z,100023.50
2022-09-26T02:09:53.475Z,100019.94
2022-09-26T02:12:26.874Z,100015.22
2022-09-26T02:14:56.622Z,100013.56
2022-09-26T02:17:28.459Z,100008.19
2022-09-26T02:19:58.926Z,100008.34
2022-09-26T02:22:32.771Z,99998.41
2022-09-26T02:24:59.270Z,100003.19
2022-09-26T02:27:27.179Z,99991.56
2022-09-26T02:29:54.631Z,99989.91
2022-09-26T02:32:25.948Z,99977.25
2022-09-26T02:34:52.420Z,99973.75
2022-09-26T02:37:21.031Z,99961.31
2022-09-26T02:39:49.739Z,99961.50
2022-09-26T02:42:40.487Z,99952.59
2022-09-26T02:45:46.312Z,99948.44
2022-09-26T02:48:29.650Z,99954.84
2022-09-26T02:51:36.165Z,99947.78
2022-09-26T02:54:14.640Z,99944.25
2022-09-26T02:56:58.430Z,99938.88
2022-09-26T02:59:51.997Z,99934.31
2022-09-26T03:02:25.376Z,99928.94
2022-09-26T03:05:00.647Z,99922.72
2022-09-26T03:07:32.511Z,99913.44
2022-09-26T03:10:03.601Z,99913.25
2022-09-26T03:12:32.579Z,99912.25
2022-09-26T03:15:01.896Z,99910.38
2022-09-26T03:17:29.676Z,99903.78
2022-09-26T03:20:05.722Z,99897.19
2022-09-26T03:22:33.436Z,99888.28
2022-09-26T03:25:00.545Z,99889.75
2022-09-26T03:27:27.565Z,99879.00
2022-09-26T03:29:54.004Z,99880.47
2022-09-26T03:32:20.326Z,99875.72
2022-09-26T03:34:46.697Z,99872.81
2022-09-26T03:37:13.641Z,99860.84
2022-09-26T03:39:39.966Z,99866.88
2022-09-26T03:42:06.371Z,99866.47
2022-09-26T03:44:32.696Z,99860.06
2022-09-26T03:46:59.042Z,99853.47
2022-09-26T03:49:25.434Z,99839.81
2022-09-26T03:51:51.762Z,99832.38
2022-09-26T03:54:18.094Z,99834.88
2022-09-26T03:56:44.908Z,99830.94
2022-09-26T03:59:11.334Z,99825.38
2022-09-26T04:01:37.772Z,99817.09
2022-09-26T04:04:05.180Z,99808.84
2022-09-26T04:06:31.532Z,99803.06
2022-09-26T04:08:57.939Z,99793.97
2022-09-26T04:11:24.956Z,99799.13
2022-09-26T04:13:53.785Z,99802.28
2022-09-26T04:16:23.527Z,99793.16
2022-09-26T04:18:55.274Z,99795.69
2022-09-26T04:21:21.589Z,99788.22
2022-09-26T04:23:48.051Z,99781.81
2022-09-26T04:26:22.897Z,99785.75
2022-09-26T04:28:51.991Z,99776.69
2022-09-26T04:31:18.497Z,99774.81
2022-09-26T04:33:45.216Z,99767.41
2022-09-26T04:36:13.864Z,99769.22
2022-09-26T04:38:41.024Z,99759.31
2022-09-26T04:41:10.609Z,99763.47
2022-09-26T04:43:37.664Z,99751.84
2022-09-26T04:46:09.171Z,99748.97
2022-09-26T04:48:36.330Z,99743.59
2022-09-26T04:51:08.259Z,99736.31
2022-09-26T04:53:35.801Z,99730.94
2022-09-26T04:56:02.326Z,99733.63
2022-09-26T04:58:29.668Z,99724.53
2022-09-26T05:00:56.404Z,99734.28
2022-09-26T05:03:22.792Z,99721.63
2022-09-26T05:05:50.331Z,99718.75
2022-09-26T05:08:17.043Z,99710.66
2022-09-26T05:10:43.917Z,99706.09
2022-09-26T05:13:10.814Z,99709.63
2022-09-26T05:15:39.765Z,99704.22
2022-09-26T05:18:08.400Z,99697.19
2022-09-26T05:20:35.531Z,99700.72
2022-09-26T05:23:03.689Z,99695.50
2022-09-26T05:25:55.006Z,99698.22
2022-09-26T05:28:21.621Z,99690.53
2022-09-26T05:30:48.232Z,99695.28
2022-09-26T05:33:14.877Z,99691.75
2022-09-26T05:35:41.303Z,99695.50
2022-09-26T05:38:07.693Z,99686.75
2022-09-26T05:40:52.601Z,99677.03
2022-09-26T05:43:18.984Z,99685.09
2022-09-26T05:45:50.773Z,99677.03
2022-09-26T05:48:17.287Z,99679.72
2022-09-26T05:50:44.018Z,99689.28
2022-09-26T05:53:10.472Z,99686.38
2022-09-26T05:55:39.816Z,99683.28
2022-09-26T05:58:07.536Z,99676.47
2022-09-26T06:00:34.193Z,99679.81
2022-09-26T06:03:03.574Z,99675.03
2022-09-26T06:05:32.235Z,99674.41
2022-09-26T06:08:01.653Z,99673.19
2022-09-26T06:10:28.078Z,99666.56
2022-09-26T06:12:54.497Z,99665.34
2022-09-26T06:15:21.142Z,99661.63
2022-09-26T06:17:48.168Z,99663.28
2022-09-26T06:20:14.566Z,99661.22
2022-09-26T06:22:41.903Z,99657.66
2022-09-26T06:25:10.648Z,99655.59
2022-09-26T06:27:41.159Z,99650.03
2022-09-26T06:30:10.832Z,99647.97
2022-09-26T06:32:39.453Z,99645.06
2022-09-26T06:35:07.267Z,99642.16
2022-09-26T06:37:34.803Z,99637.41
2022-09-26T06:40:01.700Z,99629.94
2022-09-26T06:42:28.250Z,99627.66
2022-09-26T06:44:55.226Z,99623.75
2022-09-26T06:47:22.243Z,99619.59
2022-09-26T06:49:49.835Z,99620.84
2022-09-26T06:52:16.386Z,99606.94
2022-09-26T06:54:43.006Z,99607.16
2022-09-26T06:57:15.001Z,99600.13
2022-09-26T06:59:44.036Z,99596.81
2022-09-26T07:02:11.400Z,99599.91
2022-09-26T07:04:38.072Z,99589.31
2022-09-26T07:07:05.220Z,99584.13
2022-09-26T07:09:32.270Z,99576.44
2022-09-26T07:12:15.701Z,99577.50
2022-09-26T07:14:44.089Z,99566.06
2022-09-26T07:17:15.949Z,99567.94
2022-09-26T07:19:43.163Z,99558.59
2022-09-26T07:22:10.958Z,99556.31
2022-09-26T07:24:38.024Z,99552.13
2022-09-26T07:27:05.522Z,99549.63
2022-09-26T07:29:33.747Z,99551.09
2022-09-26T07:32:00.931Z,99546.97
2022-09-26T07:34:28.116Z,99539.25
2022-09-26T07:36:55.316Z,99535.09
2022-09-26T07:39:22.360Z,99531.78
2022-09-26T07:41:49.911Z,99540.88
2022-09-26T07:45:09.248Z,99531.91
2022-09-26T07:47:22.281Z,99532.72
2022-09-26T07:50:07.768Z,99528.13
2022-09-26T07:52:34.461Z,99534.31
2022-09-26T07:55:01.071Z,99519.97
2022-09-26T07:57:29.283Z,99517.44
2022-09-26T07:59:55.862Z,99504.94
2022-09-26T08:02:24.789Z,99509.69
2022-09-26T08:05:03.977Z,99507.16
2022-09-26T08:07:33.395Z,99514.63
2022-09-26T08:10:02.211Z,99502.53
2022-09-26T08:12:29.658Z,99501.91
2022-09-26T08:14:56.134Z,99503.94
2022-09-26T08:17:22.483Z,99506.22
2022-09-26T08:19:48.883Z,99497.66
2022-09-26T08:22:15.211Z,99505.56
2022-09-26T08:24:41.911Z,99502.63
2022-09-26T08:27:09.848Z,99498.03
2022-09-26T08:29:36.193Z,99504.25
2022-09-26T08:32:03.962Z,99505.94
2022-09-26T08:34:35.243Z,99494.50
2022-09-26T08:37:01.591Z,99506.38
2022-09-26T08:39:32.538Z,99499.75
2022-09-26T08:42:07.364Z,99496.22
2022-09-26T08:44:53.939Z,99495.84
2022-09-26T08:47:48.773Z,99490.03
2022-09-26T08:50:33.127Z,99503.78
2022-09-26T08:53:08.443Z,99500.47
2022-09-26T08:55:40.862Z,99498.78
2022-09-26T08:58:18.775Z,99499.84
2022-09-26T09:01:00.630Z,99499.00
2022-09-26T09:03:36.256Z,99496.31
2022-09-26T09:06:11.225Z,99478.22
2022-09-26T09:08:51.392Z,99477.41
2022-09-26T09:11:23.334Z,99482.19
2022-09-26T09:14:08.292Z,99478.66
2022-09-26T09:16:44.815Z,99488.84
2022-09-26T09:19:18.755Z,99477.44
2022-09-26T09:22:12.879Z,99470.81
2022-09-26T09:24:42.976Z,99475.59
2022-09-26T09:30:17.362Z,99466.25
2022-09-26T09:32:53.197Z,99470.38
2022-09-26T09:35:29.454Z,99460.41
2022-09-26T09:37:56.504Z,99455.00
2022-09-26T09:40:29.470Z,99462.88
2022-09-26T09:43:03.461Z,99456.22
2022-09-26T09:45:50.939Z,99448.94
2022-09-26T09:48:17.778Z,99442.72
2022-09-26T09:51:02.362Z,99438.50
2022-09-26T09:53:34.776Z,99434.53
2022-09-26T09:56:31.280Z,99431.38
2022-09-26T09:59:03.598Z,99434.72
2022-09-26T10:01:41.739Z,99435.94
2022-09-26T10:04:33.841Z,99427.59
2022-09-26T10:07:01.828Z,99417.00
2022-09-26T10:09:39.950Z,99414.31
2022-09-26T10:12:19.194Z,99407.84
2022-09-26T10:14:55.009Z,99410.34
2022-09-26T10:17:23.584Z,99397.44
2022-09-26T10:19:50.536Z,99395.09
2022-09-26T10:22:29.378Z,99382.78
2022-09-26T10:25:16.937Z,99378.59
2022-09-26T10:27:53.695Z,99374.19
2022-09-26T10:30:20.121Z,99357.75
2022-09-26T10:32:56.553Z,99361.66
2022-09-26T10:35:25.314Z,99361.44
2022-09-26T10:38:02.303Z,99345.59
2022-09-26T10:40:47.553Z,99338.09
2022-09-26T10:43:30.678Z,99320.78
2022-09-26T10:46:06.558Z,99326.19
2022-09-26T10:48:38.165Z,99343.50
2022-09-26T10:51:07.202Z,99341.25
2022-09-26T10:53:40.077Z,99337.94
2022-09-26T10:56:11.942Z,99339.41
2022-09-26T10:58:45.436Z,99339.88
2022-09-26T11:01:21.837Z,99335.94
2022-09-26T11:03:49.432Z,99341.19
2022-09-26T11:06:31.631Z,99327.53
2022-09-26T11:09:02.399Z,99344.66
2022-09-26T11:11:38.236Z,99340.13
2022-09-26T11:14:08.286Z,99332.09
2022-09-26T11:16:43.565Z,99328.97
2022-09-26T11:19:31.162Z,99309.91
2022-09-26T11:22:25.121Z,99310.34
2022-09-26T11:25:15.845Z,99317.03
2022-09-26T11:27:51.054Z,99316.66
2022-09-26T11:30:20.887Z,99311.69
2022-09-26T11:32:58.567Z,99308.38
2022-09-26T11:35:56.041Z,99309.66
2022-09-26T11:38:46.358Z,99302.81
2022-09-26T11:41:36.359Z,99299.31
2022-09-26T11:44:20.640Z,99288.69
2022-09-26T11:47:13.534Z,99289.75
2022-09-26T11:50:04.387Z,99282.47
2022-09-26T11:52:53.263Z,99271.69
2022-09-26T11:55:41.031Z,99265.00
2022-09-26T11:58:23.098Z,99261.84
2022-09-26T12:01:30.512Z,99260.38
2022-09-26T12:04:07.635Z,99264.25
2022-09-26T12:06:56.303Z,99243.88
2022-09-26T12:10:00.263Z,99240.50
2022-09-26T12:12:42.516Z,99245.81
2022-09-26T12:15:21.824Z,99237.88
2022-09-26T12:17:51.107Z,99228.84
2022-09-26T12:20:30.216Z,99236.06
2022-09-26T12:23:21.726Z,99225.16
2022-09-26T12:25:57.143Z,99218.28
2022-09-26T12:28:35.746Z,99223.03
2022-09-26T12:31:32.631Z,99215.03
2022-09-26T12:33:58.934Z,99207.06
2022-09-26T12:36:47.680Z,99202.28
2022-09-26T12:39:47.124Z,99203.34
2022-09-26T12:42:28.806Z,99191.09
2022-09-26T12:45:04.990Z,99204.22
2022-09-26T12:48:02.776Z,99190.13
2022-09-26T12:50:40.242Z,99188.47
2022-09-26T12:53:27.479Z,99184.13
2022-09-26T12:56:15.405Z,99178.72
2022-09-26T12:59:15.573Z,99180.34
2022-09-26T13:02:01.525Z,99162.28
2022-09-26T13:05:19.238Z,99170.97
2022-09-26T13:07:54.619Z,99163.09
2022-09-26T13:10:51.557Z,99158.88
2022-09-26T13:13:33.282Z,99151.34
2022-09-26T13:16:23.724Z,99153.25
2022-09-26T13:18:56.015Z,99147.22
2022-09-26T13:21:36.536Z,99143.09
2022-09-26T13:24:13.804Z,99142.50
2022-09-26T13:26:47.164Z,99143.56
2022-09-26T13:29:20.871Z,99138.16
2022-09-26T13:31:56.055Z,99134.63
2022-09-26T13:34:38.088Z,99132.75
2022-09-26T13:37:07.967Z,99125.72
2022-09-26T13:39:52.804Z,99121.94
2022-09-26T13:42:30.772Z,99121.13
2022-09-26T13:45:19.312Z,99121.13
2022-09-26T13:47:55.325Z,99113.19
2022-09-26T13:50:25.244Z,99118.16
2022-09-26T13:53:11.390Z,99114.91
2022-09-26T13:55:37.971Z,99111.56
2022-09-26T13:58:26.581Z,99109.88
2022-09-26T14:00:53.619Z,99108.25
2022-09-26T14:03:20.190Z,99104.94
2022-09-26T14:05:52.543Z,99106.84
2022-09-26T14:08:44.428Z,99106.00
2022-09-26T14:11:25.120Z,99094.13
2022-09-26T14:14:18.615Z,99097.44
2022-09-26T14:16:50.323Z,99093.66
2022-09-26T14:19:54.159Z,99090.75
2022-09-26T14:22:50.418Z,99079.75
2022-09-26T14:25:44.766Z,99078.47
2022-09-26T14:28:22.694Z,99075.75
2022-09-26T14:31:31.529Z,99067.66
2022-09-26T14:34:16.863Z,99060.56
2022-09-26T14:36:49.293Z,99058.94
2022-09-26T14:39:27.680Z,99065.38
2022-09-26T14:41:55.639Z,99055.81
2022-09-26T14:44:22.562Z,99057.72
2022-09-26T14:46:54.560Z,99052.53
2022-09-26T14:49:27.118Z,99050.28
2022-09-26T14:52:01.002Z,99046.41
2022-09-26T14:54:46.990Z,99048.50
2022-09-26T14:57:23.818Z,99056.47
2022-09-26T14:59:50.490Z,99053.66
2022-09-26T15:02:38.179Z,99044.94
2022-09-26T15:05:09.228Z,99047.06
2022-09-26T15:07:56.850Z,99043.75
2022-09-26T15:10:35.362Z,99044.22
2022-09-26T15:13:17.042Z,99036.34
2022-09-26T15:16:10.127Z,99033.88
2022-09-26T15:18:45.947Z,99039.72
2022-09-26T15:21:28.404Z,99032.06
2022-09-26T15:23:57.276Z,99029.84
2022-09-26T15:26:33.274Z,99016.78
2022-09-26T15:29:00.374Z,99023.84
2022-09-26T15:31:37.349Z,99008.09
2022-09-26T15:34:19.832Z,99015.03
2022-09-26T15:36:51.464Z,99009.47
2022-09-26T15:39:30.282Z,99002.88
2022-09-26T15:42:20.624Z,98990.66
2022-09-26T15:45:00.737Z,98992.75
2022-09-26T15:47:30.340Z,98981.38
2022-09-26T15:50:23.361Z,98982.41
2022-09-26T15:52:56.523Z,98986.38
2022-09-26T15:55:28.212Z,98985.78
2022-09-26T15:57:59.231Z,98978.13
2022-09-26T16:00:26.055Z,98967.59
2022-09-26T16:02:53.734Z,98976.97
2022-09-26T16:05:21.659Z,98970.72
2022-09-26T16:07:51.454Z,98969.09
2022-09-26T16:10:32.048Z,98965.56
2022-09-26T16:13:00.514Z,98970.34
2022-09-26T16:15:30.949Z,98965.56
2022-09-26T16:17:58.722Z,98954.16
2022-09-26T16:20:31.262Z,98956.88
2022-09-26T16:23:05.353Z,98952.28
2022-09-26T16:25:51.197Z,98953.34
2022-09-26T16:28:18.094Z,98950.41
2022-09-26T16:30:51.493Z,98947.69
2022-09-26T16:33:32.702Z,98947.69
2022-09-26T16:36:13.196Z,98938.78
2022-09-26T16:38:39.593Z,98944.44
2022-09-26T16:41:56.495Z,98935.06
2022-09-26T16:44:27.797Z,98933.63
2022-09-26T16:46:56.032Z,98923.88
2022-09-26T16:49:34.461Z,98926.56
2022-09-26T16:52:21.819Z,98926.81
2022-09-26T16:54:48.998Z,98927.03
2022-09-26T16:57:22.639Z,98925.16
2022-09-26T16:59:49.587Z,98918.56
2022-09-26T17:02:16.995Z,98915.06
2022-09-26T17:04:43.570Z,98913.84
2022-09-26T17:07:13.958Z,98912.22
2022-09-26T17:09:42.498Z,98909.13
2022-09-26T17:12:19.482Z,98915.59
2022-09-26T17:14:49.079Z,98902.56
2022-09-26T17:17:21.763Z,98900.06
2022-09-26T17:19:55.391Z,98906.75
2022-09-26T17:22:26.667Z,98897.22
2022-09-26T17:24:53.974Z,98902.84
2022-09-26T17:27:41.428Z,98901.19
2022-09-26T17:30:16.216Z,98900.56
2022-09-26T17:32:47.165Z,98901.84
2022-09-26T17:35:19.944Z,98898.56
2022-09-26T17:37:46.428Z,98897.97
2022-09-26T17:40:17.260Z,98891.16
2022-09-26T17:42:43.651Z,98893.03
2022-09-26T17:45:10.112Z,98886.22
2022-09-26T17:47:37.919Z,98890.19
2022-09-26T17:50:05.254Z,98885.25
2022-09-26T17:52:33.259Z,98885.25
2022-09-26T17:55:04.175Z,98888.97
2022-09-26T17:57:32.993Z,98875.75
2022-09-26T18:00:15.366Z,98876.56
2022-09-26T18:02:46.079Z,98879.25
2022-09-26T18:05:21.571Z,98878.19
2022-09-26T18:07:52.283Z,98873.03
2022-09-26T18:10:33.986Z,98868.47
2022-09-26T18:13:12.728Z,98874.94
2022-09-26T18:15:39.814Z,98858.97
2022-09-26T18:18:14.359Z,98863.28
2022-09-26T18:20:41.106Z,98858.97
2022-09-26T18:23:14.864Z,98847.09
2022-09-26T18:25:43.507Z,98857.06
2022-09-26T18:28:14.248Z,98844.19
2022-09-26T18:30:44.373Z,98844.19
2022-09-26T18:33:13.433Z,98846.88
2022-09-26T18:35:43.023Z,98844.19
2022-09-26T18:38:09.711Z,98840.44
2022-09-26T18:40:43.293Z,98835.84
2022-09-26T18:43:20.746Z,98834.81
2022-09-26T18:45:47.439Z,98838.34
2022-09-26T18:48:27.412Z,98838.34
2022-09-26T18:50:54.105Z,98828.38
2022-09-26T18:53:23.284Z,98829.19
2022-09-26T18:56:08.274Z,98823.22
2022-09-26T18:58:35.481Z,98821.34
2022-09-26T19:01:06.293Z,98830.84
2022-09-26T19:03:37.961Z,98824.63
2022-09-26T19:06:18.906Z,98819.25
2022-09-26T19:08:49.586Z,98816.53
2022-09-26T19:11:19.503Z,98822.75
2022-09-26T19:13:51.472Z,98818.41
2022-09-26T19:16:18.600Z,98809.47
2022-09-26T19:18:45.849Z,98799.75
2022-09-26T19:21:22.831Z,98804.09
2022-09-26T19:23:50.346Z,98798.94
2022-09-26T19:26:29.547Z,98798.94
2022-09-26T19:28:57.974Z,98802.66
2022-09-26T19:31:25.794Z,98807.25
2022-09-26T19:33:52.537Z,98803.72
2022-09-26T19:36:19.959Z,98798.56
2022-09-26T19:38:46.729Z,98799.41
2022-09-26T19:41:13.433Z,98786.94
2022-09-26T19:43:39.862Z,98791.53
2022-09-26T19:46:13.221Z,98794.00
2022-09-26T19:48:42.361Z,98786.13
2022-09-26T19:51:12.288Z,98784.25
2022-09-26T19:53:38.902Z,98779.91
2022-09-26T19:56:05.628Z,98769.13
2022-09-26T19:58:32.066Z,98786.13
2022-09-26T20:01:02.531Z,98781.56
2022-09-26T20:03:39.859Z,98776.16
2022-09-26T20:06:18.472Z,98772.44
2022-09-26T20:08:45.180Z,98770.78
2022-09-26T20:11:11.851Z,98781.56
2022-09-26T20:13:56.731Z,98771.81
2022-09-26T20:16:23.655Z,98779.91
2022-09-26T20:18:51.422Z,98776.97
2022-09-26T20:21:22.365Z,98771.38
2022-09-26T20:23:48.801Z,98760.59
2022-09-26T20:26:17.103Z,98760.94
2022-09-26T20:28:44.278Z,98762.81
2022-09-26T20:31:19.573Z,98757.19
2022-09-26T20:33:46.124Z,98752.63
2022-09-26T20:36:12.949Z,98741.84
2022-09-26T20:38:45.294Z,98748.03
2022-09-26T20:41:33.983Z,98752.38
2022-09-26T20:44:04.742Z,98748.03
2022-09-26T20:46:35.336Z,98745.13
2022-09-26T20:49:05.105Z,98741.59
2022-09-26T20:51:34.953Z,98743.47
2022-09-26T20:54:02.281Z,98738.88
2022-09-26T20:56:29.291Z,98737.84
2022-09-26T20:58:55.638Z,98735.16
2022-09-26T21:01:23.221Z,98736.78
2022-09-26T21:03:52.250Z,98740.09
2022-09-26T21:06:22.043Z,98736.31
2022-09-26T21:08:48.725Z,98728.00
2022-09-26T21:11:18.612Z,98734.00
2022-09-26T21:13:45.973Z,98728.59
2022-09-26T21:16:14.324Z,98722.75
2022-09-26T21:18:43.845Z,98725.19
2022-09-26T21:21:20.900Z,98729.31
2022-09-26T21:23:47.614Z,98730.16
2022-09-26T21:26:19.122Z,98722.66
2022-09-26T21:28:49.911Z,98721.63
2022-09-26T21:31:24.974Z,98719.75
2022-09-26T21:33:52.106Z,98727.84
2022-09-26T21:36:21.050Z,98727.84
2022-09-26T21:38:50.431Z,98730.31
2022-09-26T21:41:16.816Z,98730.31
2022-09-26T21:43:49.357Z,98721.16
2022-09-26T21:46:17.281Z,98719.28
2022-09-26T21:48:43.853Z,98723.84
2022-09-26T21:51:12.802Z,98722.56
2022-09-26T21:53:45.696Z,98713.41
2022-09-26T21:56:35.548Z,98714.81
2022-09-26T21:59:04.548Z,98710.50
2022-09-26T22:01:31.058Z,98709.66
2022-09-26T22:03:58.603Z,98703.69
2022-09-26T22:06:25.002Z,98712.84
2022-09-26T22:08:51.496Z,98702.03
2022-09-26T22:11:18.224Z,98706.84
2022-09-26T22:13:44.593Z,98699.78
2022-09-26T22:16:13.149Z,98697.09
2022-09-26T22:18:40.421Z,98700.03
2022-09-26T22:21:08.750Z,98693.81
2022-09-26T22:23:36.087Z,98691.94
2022-09-26T22:26:02.594Z,98695.47
2022-09-26T22:28:29.646Z,98687.38
2022-09-26T22:31:00.185Z,98698.16
2022-09-26T22:33:26.583Z,98687.38
2022-09-26T22:35:52.953Z,98687.38
2022-09-26T22:38:19.416Z,98682.19
2022-09-26T22:40:46.232Z,98689.47
2022-09-26T22:43:12.737Z,98678.03
2022-09-26T22:45:39.224Z,98680.19
2022-09-26T22:48:05.569Z,98674.78
2022-09-26T22:50:32.214Z,98679.31
2022-09-26T22:52:59.126Z,98669.59
2022-09-26T22:55:25.497Z,98676.06
2022-09-26T22:57:52.046Z,98674.19
2022-09-26T23:00:18.547Z,98673.13
2022-09-26T23:02:45.117Z,98678.50
2022-09-26T23:05:11.894Z,98682.03
2022-09-26T23:07:38.298Z,98679.31
2022-09-26T23:10:04.900Z,98676.63
2022-09-26T23:12:32.485Z,98671.25
2022-09-26T23:14:58.838Z,98673.94
2022-09-26T23:17:25.437Z,98671.25
2022-09-26T23:19:52.274Z,98664.00
2022-09-26T23:22:18.743Z,98666.69
2022-09-26T23:24:45.079Z,98654.22
2022-09-26T23:27:11.559Z,98665.84
2022-09-26T23:29:38.066Z,98664.00
2022-09-26T23:32:04.516Z,98665.03
2022-09-26T23:34:30.864Z,98665.03
2022-09-26T23:36:57.244Z,98652.59
2022-09-26T23:39:23.678Z,98668.19
2022-09-26T23:41:50.062Z,98672.53
2022-09-26T23:44:16.473Z,98664.09
2022-09-26T23:46:43.095Z,98669.72
2022-09-26T23:49:09.522Z,98661.03
2022-09-26T23:51:36.081Z,98660.44
2022-09-26T23:54:02.716Z,98663.59
2022-09-26T23:56:29.108Z,98659.50
2022-09-26T23:58:57.332Z,98663.47
